createdAt,value
2023-03-25T00:01:01.562Z,94799.59
2023-03-25T00:03:29.228Z,94789.53
2023-03-25T00:05:56.341Z,94793.22
2023-03-25T00:08:25.061Z,94796.44
2023-03-25T00:10:52.465Z,94789.03
2023-03-25T00:13:18.958Z,94771.53
2023-03-25T00:15:48.651Z,94774.19
2023-03-25T00:18:18.724Z,94773.38
2023-03-25T00:20:46.024Z,94765.66
2023-03-25T00:23:13.125Z,94762.94
2023-03-25T00:25:39.573Z,94762.88
2023-03-25T00:28:06.019Z,94773.47
2023-03-25T00:30:32.504Z,94756.75
2023-03-25T00:33:01.730Z,94762.53
2023-03-25T00:35:29.158Z,94749.53
2023-03-25T00:38:00.339Z,94753.44
2023-03-25T00:40:28.520Z,94764.81
2023-03-25T00:42:55.562Z,94759.16
2023-03-25T00:45:22.277Z,94760.69
2023-03-25T00:47:48.914Z,94746.00
2023-03-25T00:50:15.422Z,94747.53
2023-03-25T00:52:41.863Z,94736.91
2023-03-25T00:55:08.594Z,94728.16
2023-03-25T00:57:35.221Z,94728.97
2023-03-25T01:00:01.957Z,94730.59
2023-03-25T01:02:28.501Z,94737.16
2023-03-25T01:04:55.125Z,94739.50
2023-03-25T01:07:21.620Z,94729.13
2023-03-25T01:09:48.838Z,94733.63
2023-03-25T01:12:16.032Z,94725.09
2023-03-25T01:14:43.167Z,94717.38
2023-03-25T01:17:09.808Z,94721.91
2023-03-25T01:19:36.534Z,94719.72
2023-03-25T01:22:03.143Z,94725.59
2023-03-25T01:24:29.656Z,94731.69
2023-03-25T01:26:56.139Z,94724.56
2023-03-25T01:29:22.651Z,94715.78
2023-03-25T01:31:49.225Z,94707.28
2023-03-25T01:34:16.083Z,94712.34
2023-03-25T01:36:46.839Z,94721.91
2023-03-25T01:39:16.720Z,94715.47
2023-03-25T01:41:49.762Z,94713.88
2023-03-25T01:44:20.680Z,94714.34
2023-03-25T01:46:49.401Z,94712.75
2023-03-25T01:49:23.768Z,94707.94
2023-03-25T01:51:54.957Z,94704.72
2023-03-25T01:54:21.505Z,94708.41
2023-03-25T01:56:49.376Z,94699.91
2023-03-25T01:59:18.209Z,94698.75
2023-03-25T02:01:46.969Z,94695.06
2023-03-25T02:04:15.031Z,94690.31
2023-03-25T02:06:41.436Z,94669.38
2023-03-25T02:09:09.218Z,94665.22
2023-03-25T02:11:36.216Z,94663.59
2023-03-25T02:14:04.686Z,94655.97
2023-03-25T02:16:37.506Z,94653.63
2023-03-25T02:19:10.691Z,94659.44
2023-03-25T02:21:55.578Z,94663.34
2023-03-25T02:24:25.842Z,94663.09
2023-03-25T02:27:01.582Z,94658.38
2023-03-25T02:29:49.496Z,94659.44
2023-03-25T02:32:25.410Z,94661.50
2023-03-25T02:35:04.139Z,94653.06
2023-03-25T02:37:47.031Z,94654.13
2023-03-25T02:40:19.415Z,94655.16
2023-03-25T02:42:52.076Z,94664.72
2023-03-25T02:45:32.753Z,94648.25
2023-03-25T02:48:02.709Z,94650.09
2023-03-25T02:50:33.278Z,94640.31
2023-03-25T02:53:01.463Z,94650.41
2023-03-25T02:55:30.599Z,94648.34
2023-03-25T02:57:57.910Z,94643.84
2023-03-25T03:00:26.802Z,94656.84
2023-03-25T03:03:02.515Z,94655.00
2023-03-25T03:05:31.269Z,94653.63
2023-03-25T03:08:19.071Z,94661.03
2023-03-25T03:10:45.657Z,94661.50
2023-03-25T03:13:15.089Z,94654.63
2023-03-25T03:15:46.646Z,94659.91
2023-03-25T03:18:27.408Z,94652.19
2023-03-25T03:21:16.606Z,94649.78
2023-03-25T03:24:01.876Z,94655.88
2023-03-25T03:26:44.601Z,94654.28
2023-03-25T03:29:20.407Z,94657.19
2023-03-25T03:32:05.964Z,94658.78
2023-03-25T03:34:36.680Z,94653.22
2023-03-25T03:37:04.363Z,94649.78
2023-03-25T03:39:33.173Z,94656.69
2023-03-25T03:42:02.221Z,94650.81
2023-03-25T03:44:33.675Z,94660.03
2023-03-25T03:47:05.113Z,94658.94
2023-03-25T03:49:46.903Z,94662.84
2023-03-25T03:52:17.220Z,94667.13
2023-03-25T03:54:54.598Z,94663.09
2023-03-25T03:57:27.068Z,94662.28
2023-03-25T04:00:04.389Z,94658.06
2023-03-25T04:02:35.859Z,94661.50
2023-03-25T04:05:02.456Z,94667.06
2023-03-25T04:07:41.625Z,94666.97
2023-03-25T04:10:14.873Z,94670.16
2023-03-25T04:12:43.709Z,94686.84
2023-03-25T04:15:10.347Z,94681.63
2023-03-25T04:17:36.880Z,94691.75
2023-03-25T04:20:09.003Z,94696.03
2023-03-25T04:22:37.857Z,94693.91
2023-03-25T04:25:05.889Z,94697.63
2023-03-25T04:27:32.789Z,94699.22
2023-03-25T04:30:01.936Z,94707.72
2023-03-25T04:32:28.530Z,94711.75
2023-03-25T04:34:58.212Z,94715.75
2023-03-25T04:37:27.824Z,94710.47
2023-03-25T04:39:56.214Z,94712.09
2023-03-25T04:42:25.833Z,94711.28
2023-03-25T04:44:52.860Z,94718.97
2023-03-25T04:47:21.274Z,94712.88
2023-03-25T04:49:48.141Z,94717.94
2023-03-25T04:52:14.703Z,94719.72
2023-03-25T04:54:41.161Z,94719.72
2023-03-25T04:57:10.784Z,94714.16
2023-03-25T04:59:37.562Z,94712.88
2023-03-25T05:02:05.850Z,94718.97
2023-03-25T05:04:32.883Z,94714.25
2023-03-25T05:06:59.575Z,94725.09
2023-03-25T05:09:26.029Z,94723.22
2023-03-25T05:11:53.354Z,94718.41
2023-03-25T05:14:21.216Z,94727.16
2023-03-25T05:16:48.115Z,94726.34
2023-03-25T05:19:15.057Z,94720.03
2023-03-25T05:21:42.417Z,94726.84
2023-03-25T05:24:10.399Z,94733.75
2023-03-25T05:26:37.729Z,94729.00
2023-03-25T05:29:04.646Z,94731.66
2023-03-25T05:31:31.119Z,94735.38
2023-03-25T05:33:57.997Z,94729.59
2023-03-25T05:36:27.382Z,94728.53
2023-03-25T05:38:54.758Z,94722.19
2023-03-25T05:41:22.862Z,94723.78
2023-03-25T05:43:50.853Z,94714.81
2023-03-25T05:46:18.646Z,94725.41
2023-03-25T05:48:45.795Z,94727.00
2023-03-25T05:51:15.656Z,94727.25
2023-03-25T05:53:43.756Z,94724.59
2023-03-25T05:56:11.327Z,94720.91
2023-03-25T05:58:38.148Z,94725.75
2023-03-25T06:01:04.790Z,94731.06
2023-03-25T06:03:34.386Z,94729.41
2023-03-25T06:06:01.727Z,94723.34
2023-03-25T06:08:30.041Z,94715.94
2023-03-25T06:10:59.173Z,94729.41
2023-03-25T06:13:25.668Z,94722.53
2023-03-25T06:15:56.253Z,94719.63
2023-03-25T06:18:25.896Z,94729.75
2023-03-25T06:20:54.124Z,94728.72
2023-03-25T06:23:24.645Z,94729.25
2023-03-25T06:25:51.522Z,94731.66
2023-03-25T06:28:21.291Z,94733.06
2023-03-25T06:30:48.410Z,94738.94
2023-03-25T06:33:15.409Z,94730.72
2023-03-25T06:36:01.858Z,94731.53
2023-03-25T06:38:30.024Z,94740.03
2023-03-25T06:40:57.034Z,94748.56
2023-03-25T06:43:23.558Z,94743.25
2023-03-25T06:45:53.039Z,94747.78
2023-03-25T06:48:19.669Z,94747.91
2023-03-25T06:50:46.200Z,94746.47
2023-03-25T06:53:12.723Z,94749.34
2023-03-25T06:55:39.349Z,94753.84
2023-03-25T06:58:05.793Z,94751.75
2023-03-25T07:00:32.359Z,94756.81
2023-03-25T07:02:58.868Z,94754.66
2023-03-25T07:05:25.498Z,94758.25
2023-03-25T07:07:51.963Z,94766.28
2023-03-25T07:10:18.687Z,94764.44
2023-03-25T07:12:45.332Z,94762.03
2023-03-25T07:15:11.796Z,94763.19
2023-03-25T07:17:38.349Z,94760.63
2023-03-25T07:20:05.656Z,94764.94
2023-03-25T07:22:32.632Z,94765.28
2023-03-25T07:24:59.319Z,94772.16
2023-03-25T07:27:26.519Z,94771.38
2023-03-25T07:29:53.028Z,94769.28
2023-03-25T07:32:19.588Z,94779.41
2023-03-25T07:34:46.064Z,94785.28
2023-03-25T07:37:12.498Z,94776.84
2023-03-25T07:39:38.902Z,94787.78
2023-03-25T07:42:06.401Z,94787.47
2023-03-25T07:44:33.024Z,94788.16
2023-03-25T07:46:59.539Z,94786.81
2023-03-25T07:49:26.292Z,94783.25
2023-03-25T07:51:52.765Z,94790.31
2023-03-25T07:54:22.309Z,94790.94
2023-03-25T07:56:48.769Z,94789.78
2023-03-25T07:59:15.342Z,94790.03
2023-03-25T08:01:41.815Z,94797.31
2023-03-25T08:04:08.346Z,94796.88
2023-03-25T08:06:34.849Z,94793.94
2023-03-25T08:09:01.509Z,94797.03
2023-03-25T08:11:27.944Z,94799.09
2023-03-25T08:13:54.376Z,94804.31
2023-03-25T08:16:22.830Z,94799.25
2023-03-25T08:18:52.833Z,94808.34
2023-03-25T08:21:25.239Z,94801.44
2023-03-25T08:23:54.868Z,94808.81
2023-03-25T08:26:21.311Z,94810.28
2023-03-25T08:28:48.063Z,94813.75
2023-03-25T08:31:15.294Z,94812.59
2023-03-25T08:33:42.904Z,94817.66
2023-03-25T08:36:14.040Z,94814.66
2023-03-25T08:38:41.650Z,94819.97
2023-03-25T08:41:08.100Z,94819.97
2023-03-25T08:43:34.561Z,94816.44
2023-03-25T08:46:01.156Z,94817.22
2023-03-25T08:48:27.631Z,94818.84
2023-03-25T08:50:54.058Z,94819.88
2023-03-25T08:53:20.644Z,94818.38
2023-03-25T08:55:47.184Z,94821.13
2023-03-25T08:58:13.693Z,94807.53
2023-03-25T09:00:40.217Z,94807.63
2023-03-25T09:03:07.173Z,94817.88
2023-03-25T09:05:33.780Z,94815.22
2023-03-25T09:08:00.872Z,94817.88
2023-03-25T09:10:27.436Z,94812.91
2023-03-25T09:12:53.963Z,94811.03
2023-03-25T09:15:21.137Z,94797.69
2023-03-25T09:17:47.653Z,94795.38
2023-03-25T09:20:14.537Z,94801.34
2023-03-25T09:22:41.367Z,94799.03
2023-03-25T09:25:08.324Z,94800.97
2023-03-25T09:27:35.379Z,94792.53
2023-03-25T09:30:02.011Z,94789.44
2023-03-25T09:32:28.512Z,94790.22
2023-03-25T09:34:54.971Z,94793.69
2023-03-25T09:37:21.460Z,94792.41
2023-03-25T09:39:48.028Z,94787.66
2023-03-25T09:42:32.898Z,94786.38
2023-03-25T09:45:09.926Z,94794.72
2023-03-25T09:47:39.304Z,94785.88
2023-03-25T09:50:10.782Z,94783.72
2023-03-25T09:52:51.124Z,94793.44
2023-03-25T09:55:21.819Z,94786.31
2023-03-25T09:57:50.674Z,94784.59
2023-03-25T10:00:22.640Z,94779.94
2023-03-25T10:02:57.702Z,94777.94
2023-03-25T10:05:47.199Z,94775.88
2023-03-25T10:08:24.849Z,94772.13
2023-03-25T10:10:57.819Z,94771.22
2023-03-25T10:13:24.255Z,94767.06
2023-03-25T10:15:57.125Z,94756.91
2023-03-25T10:18:29.752Z,94759.19
2023-03-25T10:21:00.160Z,94756.13
2023-03-25T10:23:33.389Z,94759.91
2023-03-25T10:26:03.147Z,94760.00
2023-03-25T10:28:36.956Z,94767.31
2023-03-25T10:31:05.528Z,94761.56
2023-03-25T10:33:31.926Z,94758.03
2023-03-25T10:35:59.964Z,94755.88
2023-03-25T10:38:26.434Z,94752.34
2023-03-25T10:41:13.108Z,94743.75
2023-03-25T10:43:41.786Z,94728.53
2023-03-25T10:46:17.227Z,94740.56
2023-03-25T10:48:45.223Z,94735.91
2023-03-25T10:51:14.035Z,94742.09
2023-03-25T10:53:41.533Z,94748.28
2023-03-25T10:56:12.787Z,94746.16
2023-03-25T10:58:40.090Z,94739.06
2023-03-25T11:01:13.913Z,94739.63
2023-03-25T11:03:41.982Z,94746.06
2023-03-25T11:06:21.151Z,94747.50
2023-03-25T11:09:18.507Z,94744.25
2023-03-25T11:11:45.931Z,94748.94
2023-03-25T11:14:12.706Z,94740.28
2023-03-25T11:16:47.536Z,94734.59
2023-03-25T11:19:21.079Z,94725.91
2023-03-25T11:21:53.884Z,94717.78
2023-03-25T11:24:21.074Z,94722.38
2023-03-25T11:26:49.116Z,94717.13
2023-03-25T11:29:18.594Z,94712.50
2023-03-25T11:31:54.974Z,94703.56
2023-03-25T11:34:22.754Z,94708.50
2023-03-25T11:37:04.576Z,94705.44
2023-03-25T11:39:40.911Z,94697.25
2023-03-25T11:42:14.244Z,94684.00
2023-03-25T11:44:41.254Z,94685.91
2023-03-25T11:47:09.472Z,94684.84
2023-03-25T11:49:38.567Z,94680.31
2023-03-25T11:52:07.666Z,94680.63
2023-03-25T11:54:35.540Z,94675.88
2023-03-25T11:57:04.261Z,94681.75
2023-03-25T11:59:36.486Z,94677.25
2023-03-25T12:02:23.658Z,94688.72
2023-03-25T12:04:57.803Z,94685.97
2023-03-25T12:07:24.592Z,94692.34
2023-03-25T12:09:55.778Z,94686.19
2023-03-25T12:12:33.194Z,94675.31
2023-03-25T12:14:59.625Z,94675.81
2023-03-25T12:17:29.096Z,94670.50
2023-03-25T12:20:21.467Z,94665.75
2023-03-25T12:22:53.924Z,94659.97
2023-03-25T12:25:35.569Z,94655.69
2023-03-25T12:28:01.990Z,94645.59
2023-03-25T12:30:28.417Z,94646.16
2023-03-25T12:32:54.987Z,94642.97
2023-03-25T12:35:24.291Z,94651.53
2023-03-25T12:37:57.081Z,94647.56
2023-03-25T12:40:35.528Z,94640.63
2023-03-25T12:43:05.106Z,94632.38
2023-03-25T12:45:50.480Z,94641.69
2023-03-25T12:48:38.142Z,94634.50
2023-03-25T12:51:11.012Z,94642.25
2023-03-25T12:53:40.688Z,94639.84
2023-03-25T12:56:17.749Z,94629.94
2023-03-25T12:58:50.353Z,94631.84
2023-03-25T13:01:37.681Z,94632.34
2023-03-25T13:04:22.225Z,94623.31
2023-03-25T13:06:48.693Z,94626.78
2023-03-25T13:09:18.564Z,94629.44
2023-03-25T13:11:51.159Z,94636.09
2023-03-25T13:14:24.038Z,94634.25
2023-03-25T13:16:53.168Z,94623.03
2023-03-25T13:19:22.876Z,94626.25
2023-03-25T13:21:54.191Z,94621.69
2023-03-25T13:24:24.278Z,94615.31
2023-03-25T13:26:53.106Z,94621.69
2023-03-25T13:29:29.073Z,94621.69
2023-03-25T13:31:57.598Z,94624.34
2023-03-25T13:34:30.107Z,94630.22
2023-03-25T13:36:56.534Z,94624.63
2023-03-25T13:39:25.480Z,94641.91
2023-03-25T13:42:01.028Z,94636.00
2023-03-25T13:44:32.241Z,94637.34
2023-03-25T13:47:22.860Z,94634.91
2023-03-25T13:49:52.169Z,94638.69
2023-03-25T13:52:18.839Z,94641.91
2023-03-25T13:54:52.384Z,94644.00
2023-03-25T13:57:27.829Z,94640.53
2023-03-25T14:00:14.582Z,94646.13
2023-03-25T14:02:49.720Z,94647.13
2023-03-25T14:05:34.740Z,94648.19
2023-03-25T14:08:04.161Z,94631.69
2023-03-25T14:10:47.631Z,94635.63
2023-03-25T14:13:16.738Z,94632.06
2023-03-25T14:16:04.086Z,94625.16
2023-03-25T14:18:32.219Z,94620.41
2023-03-25T14:21:13.207Z,94623.88
2023-03-25T14:23:40.786Z,94623.13
2023-03-25T14:26:10.133Z,94626.91
2023-03-25T14:28:38.939Z,94621.03
2023-03-25T14:31:10.312Z,94620.00
2023-03-25T14:33:55.577Z,94623.16
2023-03-25T14:36:29.094Z,94627.91
2023-03-25T14:38:56.512Z,94629.00
2023-03-25T14:42:01.922Z,94629.28
2023-03-25T14:44:33.015Z,94624.25
2023-03-25T14:47:22.277Z,94625.81
2023-03-25T14:49:50.623Z,94623.13
2023-03-25T14:52:18.992Z,94624.47
2023-03-25T14:54:49.759Z,94625.78
2023-03-25T14:57:22.197Z,94614.06
2023-03-25T14:59:50.186Z,94626.50
2023-03-25T15:02:20.090Z,94626.78
2023-03-25T15:04:52.386Z,94648.53
2023-03-25T15:07:37.459Z,94650.06
2023-03-25T15:10:05.944Z,94648.97
2023-03-25T15:12:32.728Z,94649.78
2023-03-25T15:15:25.118Z,94642.38
2023-03-25T15:17:51.674Z,94666.28
2023-03-25T15:20:24.216Z,94646.47
2023-03-25T15:23:11.326Z,94633.09
2023-03-25T15:25:37.769Z,94640.06
2023-03-25T15:28:11.197Z,94644.38
2023-03-25T15:30:37.819Z,94644.66
2023-03-25T15:33:36.853Z,94642.28
2023-03-25T15:36:10.895Z,94644.91
2023-03-25T15:38:43.220Z,94646.53
2023-03-25T15:41:13.101Z,94648.13
2023-03-25T15:44:00.447Z,94643.78
2023-03-25T15:46:27.780Z,94640.69
2023-03-25T15:48:57.262Z,94632.97
2023-03-25T15:51:42.993Z,94626.06
2023-03-25T15:54:12.452Z,94633.50
2023-03-25T15:56:41.887Z,94629.44
2023-03-25T15:59:18.664Z,94637.41
2023-03-25T16:01:48.447Z,94636.09
2023-03-25T16:04:14.857Z,94648.25
2023-03-25T16:06:43.210Z,94652.69
2023-03-25T16:09:19.291Z,94654.63
2023-03-25T16:11:46.769Z,94657.78
2023-03-25T16:14:14.729Z,94666.25
2023-03-25T16:17:07.585Z,94661.09
2023-03-25T16:19:45.288Z,94655.66
2023-03-25T16:22:25.479Z,94661.78
2023-03-25T16:24:52.790Z,94658.03
2023-03-25T16:27:33.969Z,94662.00
2023-03-25T16:30:00.695Z,94662.16
2023-03-25T16:32:34.512Z,94670.69
2023-03-25T16:35:01.588Z,94678.72
2023-03-25T16:37:28.362Z,94674.41
2023-03-25T16:39:56.207Z,94671.69
2023-03-25T16:42:22.614Z,94683.13
2023-03-25T16:44:49.134Z,94683.13
2023-03-25T16:47:16.188Z,94679.91
2023-03-25T16:49:46.187Z,94683.59
2023-03-25T16:52:19.580Z,94690.22
2023-03-25T16:54:47.132Z,94701.56
2023-03-25T16:57:18.858Z,94699.63
2023-03-25T16:59:47.649Z,94708.75
2023-03-25T17:02:25.501Z,94711.19
2023-03-25T17:04:55.913Z,94706.91
2023-03-25T17:07:26.750Z,94705.81
2023-03-25T17:09:54.888Z,94711.13
2023-03-25T17:12:22.013Z,94709.94
2023-03-25T17:14:50.328Z,94707.22
2023-03-25T17:17:23.031Z,94710.50
2023-03-25T17:19:51.205Z,94711.09
2023-03-25T17:22:20.864Z,94715.69
2023-03-25T17:24:55.298Z,94719.69
2023-03-25T17:27:26.537Z,94720.72
2023-03-25T17:29:59.609Z,94722.78
2023-03-25T17:32:26.635Z,94717.53
2023-03-25T17:34:57.305Z,94717.31
2023-03-25T17:37:25.233Z,94718.19
2023-03-25T17:39:51.924Z,94715.44
2023-03-25T17:42:23.821Z,94708.38
2023-03-25T17:44:50.793Z,94710.88
2023-03-25T17:47:18.183Z,94713.84
2023-03-25T17:49:44.659Z,94704.53
2023-03-25T17:52:11.332Z,94712.41
2023-03-25T17:54:37.816Z,94709.59
2023-03-25T17:57:06.740Z,94711.44
2023-03-25T17:59:33.379Z,94715.66
2023-03-25T18:01:59.889Z,94702.31
2023-03-25T18:04:26.643Z,94718.81
2023-03-25T18:06:53.230Z,94708.94
2023-03-25T18:09:22.092Z,94717.94
2023-03-25T18:11:49.579Z,94708.88
2023-03-25T18:14:16.495Z,94727.31
2023-03-25T18:16:43.087Z,94730.81
2023-03-25T18:19:39.176Z,94734.28
2023-03-25T18:22:19.234Z,94736.44
2023-03-25T18:24:47.035Z,94746.25
2023-03-25T18:27:14.285Z,94752.91
2023-03-25T18:29:40.861Z,94748.56
2023-03-25T18:32:07.515Z,94750.00
2023-03-25T18:34:34.578Z,94747.59
2023-03-25T18:37:01.115Z,94762.91
2023-03-25T18:39:27.834Z,94756.47
2023-03-25T18:41:54.310Z,94764.25
2023-03-25T18:44:21.301Z,94755.41
2023-03-25T18:46:47.889Z,94761.38
2023-03-25T18:49:16.137Z,94766.22
2023-03-25T18:51:42.886Z,94776.56
2023-03-25T18:54:09.608Z,94765.50
2023-03-25T18:56:36.210Z,94766.31
2023-03-25T18:59:05.957Z,94769.75
2023-03-25T19:01:32.694Z,94770.63
2023-03-25T19:04:02.805Z,94762.59
2023-03-25T19:06:30.055Z,94767.44
2023-03-25T19:08:57.392Z,94771.25
2023-03-25T19:11:24.233Z,94767.44
2023-03-25T19:13:51.211Z,94773.19
2023-03-25T19:16:17.865Z,94776.69
2023-03-25T19:18:44.411Z,94779.09
2023-03-25T19:21:14.388Z,94770.13
2023-03-25T19:23:41.837Z,94762.38
2023-03-25T19:26:08.621Z,94764.47
2023-03-25T19:28:35.490Z,94763.56
2023-03-25T19:31:02.250Z,94766.66
2023-03-25T19:33:31.203Z,94763.69
2023-03-25T19:35:59.838Z,94765.88
2023-03-25T19:38:26.565Z,94766.13
2023-03-25T19:41:04.615Z,94758.44
2023-03-25T19:43:31.396Z,94746.78
2023-03-25T19:45:58.225Z,94751.88
2023-03-25T19:48:24.910Z,94761.91
2023-03-25T19:50:53.981Z,94766.88
2023-03-25T19:53:21.286Z,94764.25
2023-03-25T19:55:47.739Z,94763.19
2023-03-25T19:58:14.262Z,94761.25
2023-03-25T20:00:40.725Z,94767.81
2023-03-25T20:03:07.785Z,94771.97
2023-03-25T20:05:35.988Z,94768.06
2023-03-25T20:08:02.825Z,94770.59
2023-03-25T20:10:30.437Z,94780.94
2023-03-25T20:12:57.420Z,94779.59
2023-03-25T20:15:25.050Z,94788.56
2023-03-25T20:17:53.146Z,94787.19
2023-03-25T20:20:20.454Z,94778.56
2023-03-25T20:22:48.409Z,94783.50
2023-03-25T20:25:15.484Z,94780.75
2023-03-25T20:27:42.057Z,94772.34
2023-03-25T20:30:10.132Z,94772.47
2023-03-25T20:32:41.372Z,94772.34
2023-03-25T20:35:10.355Z,94770.72
2023-03-25T20:37:38.670Z,94764.19
2023-03-25T20:40:06.808Z,94772.19
2023-03-25T20:42:33.258Z,94762.53
2023-03-25T20:44:59.684Z,94767.47
2023-03-25T20:47:26.283Z,94771.25
2023-03-25T20:49:53.328Z,94770.22
2023-03-25T20:52:20.070Z,94776.72
2023-03-25T20:54:48.046Z,94773.97
2023-03-25T20:57:14.532Z,94769.72
2023-03-25T20:59:41.469Z,94771.91
2023-03-25T21:02:09.630Z,94771.91
2023-03-25T21:04:36.842Z,94766.38
2023-03-25T21:07:03.396Z,94764.03
2023-03-25T21:09:29.826Z,94760.78
2023-03-25T21:11:56.563Z,94766.78
2023-03-25T21:14:23.044Z,94763.75
2023-03-25T21:16:49.601Z,94765.44
2023-03-25T21:19:16.651Z,94758.25
2023-03-25T21:21:43.073Z,94765.25
2023-03-25T21:24:09.891Z,94770.63
2023-03-25T21:26:36.343Z,94768.19
2023-03-25T21:29:02.833Z,94765.16
2023-03-25T21:31:29.558Z,94754.41
2023-03-25T21:33:56.580Z,94758.50
2023-03-25T21:36:28.094Z,94760.47
2023-03-25T21:38:58.594Z,94760.47
2023-03-25T21:41:25.549Z,94762.53
2023-03-25T21:43:53.291Z,94765.59
2023-03-25T21:46:24.300Z,94764.44
2023-03-25T21:48:51.087Z,94770.16
2023-03-25T21:51:17.876Z,94768.16
2023-03-25T21:53:46.169Z,94773.94
2023-03-25T21:56:14.766Z,94785.34
2023-03-25T21:58:41.632Z,94777.88
2023-03-25T22:01:13.370Z,94784.84
2023-03-25T22:03:45.421Z,94781.84
2023-03-25T22:06:13.659Z,94785.91
2023-03-25T22:08:40.479Z,94780.94
2023-03-25T22:11:11.579Z,94787.06
2023-03-25T22:13:38.717Z,94794.66
2023-03-25T22:16:05.709Z,94787.41
2023-03-25T22:18:32.567Z,94796.34
2023-03-25T22:21:17.883Z,94796.19
2023-03-25T22:23:45.765Z,94794.28
2023-03-25T22:26:13.186Z,94805.19
2023-03-25T22:28:40.478Z,94812.94
2023-03-25T22:31:20.294Z,94812.38
2023-03-25T22:33:49.171Z,94807.09
2023-03-25T22:36:16.554Z,94809.78
2023-03-25T22:38:44.515Z,94807.00
2023-03-25T22:41:12.280Z,94800.28
2023-03-25T22:43:39.064Z,94801.28
2023-03-25T22:46:06.214Z,94810.13
2023-03-25T22:48:32.842Z,94805.28
2023-03-25T22:50:59.719Z,94805.91
2023-03-25T22:53:26.635Z,94806.50
2023-03-25T22:55:55.156Z,94805.69
2023-03-25T22:58:23.144Z,94804.09
2023-03-25T23:00:50.260Z,94806.94
2023-03-25T23:03:17.297Z,94812.59
2023-03-25T23:05:54.439Z,94819.75
2023-03-25T23:08:21.047Z,94816.31
2023-03-25T23:10:47.591Z,94819.16
2023-03-25T23:13:14.072Z,94811.84
2023-03-25T23:15:40.521Z,94809.78
2023-03-25T23:18:07.033Z,94802.50
2023-03-25T23:20:34.965Z,94811.81
2023-03-25T23:23:02.844Z,94809.41
2023-03-25T23:25:29.289Z,94807.47
2023-03-25T23:27:58.173Z,94817.59
2023-03-25T23:30:24.725Z,94824.28
2023-03-25T23:32:51.323Z,94826.34
2023-03-25T23:35:18.957Z,94824.13
2023-03-25T23:37:50.282Z,94821.44
2023-03-25T23:40:17.223Z,94811.13
2023-03-25T23:42:43.703Z,94800.59
2023-03-25T23:45:10.878Z,94803.41
2023-03-25T23:47:37.337Z,94806.81
2023-03-25T23:50:04.091Z,94811.91
2023-03-25T23:52:30.924Z,94807.03
2023-03-25T23:54:57.372Z,94815.97
2023-03-25T23:57:23.834Z,94822.81
2023-03-25T23:59:50.274Z,94823.63
